createdAt,value
2023-04-10T09:33:37.522Z,2.85
2023-04-10T09:42:37.430Z,1.93
2023-04-10T09:52:49.927Z,2.12
2023-04-10T10:02:49.167Z,2.51
2023-04-10T10:13:15.069Z,2.43
2023-04-10T10:23:33.323Z,2.35
2023-04-10T10:33:17.203Z,2.75
2023-04-10T10:43:15.696Z,2.37
2023-04-10T10:53:53.907Z,2.37
2023-04-10T11:03:31.542Z,3.02
2023-04-10T11:13:40.074Z,2.71
2023-04-10T11:23:50.234Z,3.09
2023-04-10T11:33:49.476Z,5.75
2023-04-10T11:44:00.886Z,2.88
2023-04-10T11:54:04.769Z,2.47
2023-04-10T12:04:03.543Z,3.05
2023-04-10T12:14:12.508Z,3.22
2023-04-10T12:24:21.441Z,2.81
2023-04-10T12:34:30.131Z,2.8
2023-04-10T12:44:38.933Z,3.01
2023-04-10T12:54:52.950Z,3.03
2023-04-10T13:04:52.848Z,2.87
2023-04-10T13:15:03.511Z,3.29
2023-04-10T13:25:06.813Z,2.85
2023-04-10T13:35:08.018Z,3.1
2023-04-10T13:45:13.968Z,2.85
2023-04-10T13:55:17.622Z,2.59
2023-04-10T14:05:19.297Z,2.65
2023-04-10T14:15:18.263Z,2.54
2023-04-10T14:25:27.199Z,2.98
2023-04-10T14:35:36.089Z,2.55
2023-04-10T14:45:47.760Z,2.63
2023-04-10T14:55:46.669Z,2.63
2023-04-10T15:06:00.766Z,1.94
2023-04-10T15:15:59.631Z,2.1
2023-04-10T15:26:08.602Z,2
2023-04-10T15:36:17.718Z,2.19
2023-04-10T15:46:28.104Z,2.29
2023-04-10T15:56:26.916Z,2.45
2023-04-10T16:06:36.226Z,2.2
2023-04-10T16:16:45.205Z,2.32
2023-04-10T16:26:54.212Z,2.47
2023-04-10T16:37:02.753Z,2.29
2023-04-10T16:47:11.547Z,3.11
2023-04-10T16:57:20.546Z,3.07
2023-04-10T17:07:29.362Z,2.4
2023-04-10T17:17:38.041Z,3.14
2023-04-10T17:27:46.398Z,2.61
2023-04-10T17:37:55.096Z,2.77
2023-04-10T17:48:03.865Z,2.91
2023-04-10T17:58:12.527Z,3.28
2023-04-10T18:08:21.408Z,3.2
2023-04-10T18:18:30.181Z,3.88
2023-04-10T18:28:40.334Z,4.31
2023-04-10T18:38:39.229Z,5.8
2023-04-10T18:48:47.996Z,5.05
2023-04-10T18:58:59.647Z,6.41
2023-04-10T19:08:58.704Z,6.54
2023-04-10T19:19:12.726Z,5.83
2023-04-10T19:29:13.333Z,5.45
2023-04-10T19:39:12.329Z,6.42
2023-04-10T19:49:23.111Z,5.33
2023-04-10T19:59:35.906Z,5.32
2023-04-10T20:09:23.951Z,6.31
2023-04-10T20:19:33.113Z,7.04
2023-04-10T20:29:42.157Z,6.47
2023-04-10T20:39:51.231Z,7.23
2023-04-10T20:50:01.291Z,5.99
2023-04-10T21:00:01.589Z,5.95
2023-04-10T21:10:00.669Z,5.32
2023-04-10T21:20:09.888Z,6.09
2023-04-10T21:30:19.175Z,5.89
2023-04-10T21:40:28.232Z,5.52
2023-04-10T21:50:37.288Z,4.32
